createdAt,value
2023-03-06T00:02:15.640Z,4.15
2023-03-06T00:07:17.079Z,5.40
2023-03-06T00:12:18.491Z,5.00
2023-03-06T00:17:19.898Z,5.63
2023-03-06T00:22:21.355Z,4.80
2023-03-06T00:27:26.045Z,5.10
2023-03-06T00:32:28.401Z,5.05
2023-03-06T00:37:30.135Z,4.82
2023-03-06T00:42:31.594Z,5.40
2023-03-06T00:47:33.060Z,4.93
2023-03-06T00:52:34.542Z,4.90
2023-03-06T00:57:36.522Z,5.47
2023-03-06T01:02:38.249Z,5.55
2023-03-06T01:07:39.738Z,5.22
2023-03-06T01:12:41.194Z,5.03
2023-03-06T01:17:42.685Z,5.93
2023-03-06T01:22:44.366Z,5.38
2023-03-06T01:27:45.809Z,6.30
2023-03-06T01:32:48.044Z,5.88
2023-03-06T01:37:49.460Z,5.97
2023-03-06T01:42:51.165Z,6.15
2023-03-06T01:47:52.584Z,6.53
2023-03-06T01:52:57.700Z,6.55
2023-03-06T01:58:03.321Z,5.70
2023-03-06T02:03:10.352Z,6.93
2023-03-06T02:08:16.698Z,6.25
2023-03-06T02:13:18.609Z,5.45
2023-03-06T02:18:20.058Z,5.90
2023-03-06T02:24:07.288Z,6.57
2023-03-06T02:29:09.239Z,6.63
2023-03-06T02:34:16.675Z,6.78
2023-03-06T02:39:21.755Z,6.82
2023-03-06T02:44:24.176Z,6.82
2023-03-06T02:49:26.606Z,6.30
2023-03-06T02:54:28.048Z,6.67
2023-03-06T02:59:29.497Z,7.15
2023-03-06T03:04:32.027Z,6.13
2023-03-06T03:09:36.872Z,7.18
2023-03-06T03:14:38.730Z,7.57
2023-03-06T03:19:40.360Z,7.28
2023-03-06T03:24:42.412Z,6.97
2023-03-06T03:29:44.651Z,6.80
2023-03-06T03:34:46.886Z,6.78
2023-03-06T03:39:48.473Z,7.13
2023-03-06T03:44:50.200Z,6.65
2023-03-06T03:49:54.793Z,6.88
2023-03-06T03:54:57.315Z,7.30
2023-03-06T04:00:01.225Z,6.95
2023-03-06T04:05:23.170Z,6.68
2023-03-06T04:10:24.653Z,6.63
2023-03-06T04:15:26.353Z,6.30
2023-03-06T04:20:28.527Z,6.70
2023-03-06T04:25:31.719Z,6.95
2023-03-06T04:30:36.602Z,7.38
2023-03-06T04:35:38.610Z,6.43
2023-03-06T04:40:46.152Z,6.82
2023-03-06T04:45:47.887Z,7.32
2023-03-06T04:50:49.354Z,7.82
2023-03-06T04:55:50.764Z,8.45
2023-03-06T05:00:52.311Z,8.55
2023-03-06T05:05:53.810Z,7.35
2023-03-06T05:11:00.668Z,7.25
2023-03-06T05:16:06.655Z,7.43
2023-03-06T05:21:08.271Z,8.18
2023-03-06T05:26:11.095Z,7.85
2023-03-06T05:31:12.558Z,7.30
2023-03-06T05:36:14.035Z,8.50
2023-03-06T05:41:15.627Z,7.35
2023-03-06T05:46:17.083Z,8.32
2023-03-06T05:51:18.602Z,7.68
2023-03-06T05:56:21.661Z,8.27
2023-03-06T06:01:25.188Z,8.20
2023-03-06T06:06:26.597Z,8.18
2023-03-06T06:11:28.086Z,8.48
2023-03-06T06:16:29.502Z,8.32
2023-03-06T06:21:30.986Z,10.18
2023-03-06T06:26:32.430Z,8.77
2023-03-06T06:31:33.954Z,8.93
2023-03-06T06:36:35.623Z,10.43
2023-03-06T06:41:57.028Z,8.95
2023-03-06T06:47:21.696Z,9.55
2023-03-06T06:52:20.420Z,9.63
2023-03-06T06:57:21.939Z,9.43
2023-03-06T07:02:23.406Z,8.98
2023-03-06T07:07:26.502Z,8.55
2023-03-06T07:17:29.462Z,8.57
2023-03-06T07:22:41.409Z,8.52
2023-03-06T07:27:54.560Z,8.88
2023-03-06T07:32:57.669Z,9.82
2023-03-06T07:37:59.134Z,8.90
2023-03-06T07:43:16.874Z,9.25
2023-03-06T07:48:23.905Z,9.60
2023-03-06T07:53:25.914Z,9.13
2023-03-06T07:58:27.391Z,8.70
2023-03-06T08:03:28.845Z,9.05
2023-03-06T08:08:30.252Z,9.73
2023-03-06T08:13:31.801Z,9.45
2023-03-06T08:18:33.343Z,9.07
2023-03-06T08:23:35.543Z,9.40
2023-03-06T08:28:37.228Z,9.43
2023-03-06T08:33:40.151Z,9.93
2023-03-06T08:38:41.620Z,10.10
2023-03-06T08:43:43.224Z,9.25
2023-03-06T08:48:47.598Z,11.10
2023-03-06T08:53:50.377Z,8.98
2023-03-06T08:58:53.265Z,10.90
2023-03-06T09:03:57.305Z,10.32
2023-03-06T09:08:59.381Z,10.07
2023-03-06T09:14:01.012Z,11.30
2023-03-06T09:19:02.548Z,11.13
2023-03-06T09:24:04.986Z,10.77
2023-03-06T09:29:07.162Z,9.95
2023-03-06T09:34:08.625Z,11.48
2023-03-06T09:39:10.354Z,10.77
2023-03-06T09:44:15.125Z,10.55
2023-03-06T09:49:51.931Z,10.82
2023-03-06T09:54:56.898Z,12.25
2023-03-06T10:00:11.712Z,11.93
2023-03-06T10:05:21.306Z,12.38
2023-03-06T10:10:36.046Z,12.52
2023-03-06T10:15:46.090Z,11.73
2023-03-06T10:20:56.600Z,12.35
2023-03-06T10:26:08.424Z,12.23
2023-03-06T10:31:22.394Z,11.50
2023-03-06T10:36:27.178Z,13.52
2023-03-06T10:41:35.759Z,11.55
2023-03-06T10:46:39.689Z,12.05
2023-03-06T10:51:56.862Z,11.75
2023-03-06T10:57:18.246Z,12.70
2023-03-06T11:02:27.227Z,12.43
2023-03-06T11:07:31.861Z,11.70
2023-03-06T11:12:38.909Z,12.40
2023-03-06T11:17:51.019Z,12.13
2023-03-06T11:23:18.556Z,13.50
2023-03-06T11:28:31.590Z,12.07
2023-03-06T11:33:39.763Z,12.30
2023-03-06T11:38:50.253Z,12.57
2023-03-06T11:44:00.650Z,14.43
2023-03-06T11:49:12.125Z,15.88
2023-03-06T11:54:14.095Z,15.63
2023-03-06T11:59:36.250Z,13.88
2023-03-06T12:04:41.200Z,13.52
2023-03-06T12:09:47.592Z,14.07
2023-03-06T12:15:04.158Z,12.80
2023-03-06T12:20:23.919Z,12.60
2023-03-06T12:25:28.335Z,12.35
2023-03-06T12:30:35.594Z,11.75
2023-03-06T12:35:45.988Z,12.52
2023-03-06T12:41:12.368Z,12.63
2023-03-06T12:46:16.428Z,11.55
2023-03-06T12:51:20.891Z,12.73
2023-03-06T12:56:22.551Z,15.70
2023-03-06T13:01:46.059Z,15.00
2023-03-06T13:12:25.150Z,13.85
2023-03-06T13:17:33.273Z,15.90
2023-03-06T13:22:34.876Z,15.70
2023-03-06T13:27:54.793Z,15.82
2023-03-06T13:32:56.364Z,13.63
2023-03-06T13:37:59.418Z,13.07
2023-03-06T13:48:47.330Z,14.95
2023-03-06T13:54:23.080Z,14.23
2023-03-06T13:59:32.055Z,12.80
2023-03-06T14:04:46.386Z,14.13
2023-03-06T14:09:58.249Z,13.40
2023-03-06T14:15:14.970Z,12.85
2023-03-06T14:20:19.666Z,11.93
2023-03-06T14:25:30.143Z,11.38
2023-03-06T14:30:31.568Z,11.73
2023-03-06T14:35:34.257Z,9.90
2023-03-06T14:40:45.261Z,9.90
2023-03-06T14:45:59.603Z,10.10
2023-03-06T14:51:02.899Z,9.63
2023-03-06T14:56:06.665Z,8.43
2023-03-06T15:01:15.556Z,8.57
2023-03-06T15:06:20.881Z,8.23
2023-03-06T15:11:22.416Z,8.77
2023-03-06T15:16:30.025Z,9.38
2023-03-06T15:21:37.801Z,9.30
2023-03-06T15:26:40.451Z,9.52
2023-03-06T15:31:44.410Z,9.98
2023-03-06T15:36:57.412Z,8.88
2023-03-06T15:42:01.722Z,9.05
2023-03-06T15:47:08.770Z,8.65
2023-03-06T15:52:10.812Z,8.77
2023-03-06T15:57:21.951Z,9.63
2023-03-06T16:02:24.397Z,8.93
2023-03-06T16:07:28.000Z,9.73
2023-03-06T16:12:31.003Z,9.10
2023-03-06T16:17:32.764Z,14.82
2023-03-06T16:22:34.455Z,10.10
2023-03-06T16:27:36.410Z,10.27
2023-03-06T16:32:38.064Z,8.45
2023-03-06T16:37:40.736Z,8.57
2023-03-06T16:42:42.161Z,8.65
2023-03-06T16:47:45.234Z,9.30
2023-03-06T16:52:46.690Z,9.50
2023-03-06T16:57:48.310Z,9.30
2023-03-06T17:02:50.670Z,8.32
2023-03-06T17:07:52.277Z,9.90
2023-03-06T17:12:55.555Z,8.93
2023-03-06T17:17:58.073Z,8.30
2023-03-06T17:22:59.572Z,9.00
2023-03-06T17:28:01.121Z,7.70
2023-03-06T17:33:02.727Z,8.93
2023-03-06T17:38:04.207Z,8.77
2023-03-06T17:43:05.731Z,8.25
2023-03-06T17:48:07.187Z,8.52
2023-03-06T17:53:09.070Z,9.13
2023-03-06T17:58:12.359Z,9.27
2023-03-06T18:03:14.171Z,8.98
2023-03-06T18:22:03.333Z,9.32
2023-03-06T18:33:36.557Z,9.90
2023-03-06T18:38:39.574Z,10.68
2023-03-06T18:43:41.028Z,9.45
2023-03-06T18:48:42.544Z,9.75
2023-03-06T18:53:44.072Z,10.10
2023-03-06T18:58:45.793Z,10.15
2023-03-06T19:03:47.281Z,9.75
2023-03-06T19:08:48.762Z,9.85
2023-03-06T19:13:50.211Z,10.25
2023-03-06T19:18:52.315Z,9.30
2023-03-06T19:23:54.505Z,9.85
2023-03-06T19:28:56.091Z,10.15
2023-03-06T19:33:57.694Z,10.40
2023-03-06T19:39:04.129Z,10.05
2023-03-06T19:44:05.868Z,9.60
2023-03-06T19:49:11.941Z,9.95
2023-03-06T19:54:13.933Z,10.52
2023-03-06T19:59:15.412Z,9.25
2023-03-06T20:04:17.020Z,9.40
2023-03-06T20:09:19.398Z,9.88
2023-03-06T20:14:20.977Z,9.93
2023-03-06T20:19:22.468Z,9.65
2023-03-06T20:24:25.840Z,10.40
2023-03-06T20:29:28.491Z,10.27
2023-03-06T20:34:30.391Z,10.00
2023-03-06T20:39:32.128Z,11.23
2023-03-06T20:44:33.810Z,11.60
2023-03-06T20:49:36.525Z,12.40
2023-03-06T20:54:38.035Z,12.95
2023-03-06T20:59:39.574Z,11.93
2023-03-06T21:04:41.099Z,11.60
2023-03-06T21:09:43.082Z,11.88
2023-03-06T21:14:44.498Z,11.60
2023-03-06T21:19:46.322Z,12.00
2023-03-06T21:24:47.780Z,12.25
2023-03-06T21:29:49.224Z,12.82
2023-03-06T21:34:50.763Z,12.43
2023-03-06T21:39:52.267Z,12.88
2023-03-06T21:44:53.726Z,11.65
2023-03-06T21:49:55.151Z,12.07
2023-03-06T21:54:56.590Z,11.15
2023-03-06T21:59:58.017Z,14.50
2023-03-06T22:04:59.490Z,13.35
2023-03-06T22:10:01.061Z,13.52
2023-03-06T22:15:02.540Z,13.63
2023-03-06T22:20:04.352Z,13.02
2023-03-06T22:25:06.124Z,11.45
2023-03-06T22:30:08.390Z,12.15
2023-03-06T22:35:09.871Z,12.40
2023-03-06T22:40:11.801Z,13.10
2023-03-06T22:45:13.234Z,12.27
2023-03-06T22:50:14.736Z,11.48
2023-03-06T22:55:16.196Z,11.82
2023-03-06T23:00:18.038Z,13.18
2023-03-06T23:05:19.554Z,13.93
2023-03-06T23:10:21.123Z,13.15
2023-03-06T23:15:41.311Z,12.40
2023-03-06T23:21:09.541Z,12.90
2023-03-06T23:26:31.329Z,13.70
2023-03-06T23:31:32.870Z,13.02
2023-03-06T23:36:34.305Z,13.00
2023-03-06T23:41:35.685Z,13.23
2023-03-06T23:46:37.240Z,12.43
2023-03-06T23:51:39.335Z,13.75
2023-03-06T23:56:40.726Z,13.05
